Time;durP1;ratioP1;P1;durP2;ratioP2;P2;SDS_P1;SDS_P2;PMS_P1;PMS_P2;Temp;Humidity;BMP_temperature;BMP_pressure;BME280_temperature;BME280_humidity;BME280_pressure;Samples;Min_cycle;Max_cycle;Signal;HPM_P1;HPM_P2
2022/07/06 00:01:32;;;;;;;98.53;93.33;;;15.40;99.90;;;;;;5052490;28;20183;-74
2022/07/06 00:03:58;;;;;;;108.57;102.90;;;15.30;99.90;;;;;;5052036;28;20581;-74
2022/07/06 00:06:24;;;;;;;120.97;114.27;;;15.30;99.90;;;;;;5052222;28;20234;-74
2022/07/06 00:08:50;;;;;;;153.10;145.07;;;15.20;99.90;;;;;;5052460;28;20196;-74
2022/07/06 00:11:16;;;;;;;216.23;204.80;;;15.20;99.90;;;;;;5052044;28;20180;-74
2022/07/06 00:13:42;;;;;;;228.60;216.47;;;15.10;99.90;;;;;;5053142;28;20202;-74
2022/07/06 00:16:08;;;;;;;216.20;204.83;;;15.10;99.90;;;;;;5051786;28;20178;-73
2022/07/06 00:18:34;;;;;;;247.40;234.17;;;15.00;99.90;;;;;;5051208;28;20214;-74
2022/07/06 00:20:59;;;;;;;219.40;207.70;;;15.00;99.90;;;;;;5053121;28;20182;-74
2022/07/06 00:23:25;;;;;;;180.17;170.97;;;15.10;99.90;;;;;;5051666;28;20201;-74
2022/07/06 00:25:51;;;;;;;225.17;212.90;;;14.90;99.90;;;;;;5052732;28;20240;-74
2022/07/06 00:28:17;;;;;;;224.43;212.60;;;14.90;99.90;;;;;;5049985;28;20240;-74
2022/07/06 00:30:43;;;;;;;117.63;111.23;;;14.90;99.90;;;;;;5052018;28;20584;-74
2022/07/06 00:33:09;;;;;;;241.73;228.83;;;14.90;99.90;;;;;;5051601;28;20202;-74
2022/07/06 00:35:35;;;;;;;228.63;216.80;;;14.90;99.90;;;;;;5052366;28;20185;-74
2022/07/06 00:38:01;;;;;;;182.07;172.43;;;14.90;99.90;;;;;;5050808;28;20308;-73
2022/07/06 00:40:27;;;;;;;205.33;194.90;;;14.90;99.90;;;;;;5052848;28;20643;-73
2022/07/06 00:42:52;;;;;;;193.57;183.47;;;14.90;99.90;;;;;;5051333;28;20260;-73
2022/07/06 00:45:19;;;;;;;196.10;185.97;;;14.90;99.90;;;;;;5052503;28;20240;-73
2022/07/06 00:47:45;;;;;;;139.10;131.83;;;14.80;99.90;;;;;;5051907;28;20658;-74
2022/07/06 00:50:13;;;;;;;124.53;118.20;;;14.70;99.90;;;;;;5052697;28;20580;-74
2022/07/06 00:52:47;;;;;;;79.17;75.03;;;14.70;99.90;;;;;;5052282;28;20186;-74
2022/07/06 00:55:15;;;;;;;54.80;51.73;;;14.70;99.90;;;;;;5052334;28;20193;-74
2022/07/06 00:57:41;;;;;;;51.17;48.40;;;14.60;99.90;;;;;;5050846;28;20275;-74
2022/07/06 01:00:11;;;;;;;33.77;31.70;;;14.60;99.90;;;;;;5052232;28;20170;-74
2022/07/06 01:02:37;;;;;;;40.73;38.53;;;14.60;99.90;;;;;;5058782;28;20193;-74
2022/07/06 01:05:08;;;;;;;28.47;27.03;;;14.50;99.90;;;;;;5067403;28;20182;-74
2022/07/06 01:07:36;;;;;;;30.47;28.97;;;14.50;99.90;;;;;;5050974;28;20273;-74
2022/07/06 01:10:06;;;;;;;27.67;26.27;;;14.30;99.90;;;;;;5052075;28;20267;-74
2022/07/06 01:12:34;;;;;;;28.57;26.93;;;14.20;99.90;;;;;;5051703;28;20319;-74
2022/07/06 01:15:06;;;;;;;24.73;23.57;;;14.20;99.90;;;;;;5050712;28;20553;-74
2022/07/06 01:17:35;;;;;;;21.80;20.70;;;14.20;99.90;;;;;;5050821;28;20275;-74
2022/07/06 01:20:12;;;;;;;22.40;20.97;;;14.20;99.90;;;;;;5050736;28;20174;-73
2022/07/06 01:22:39;;;;;;;18.83;17.67;;;14.20;99.90;;;;;;5050582;28;20721;-75
2022/07/06 01:25:06;;;;;;;16.93;15.77;;;14.20;99.90;;;;;;5051624;28;20189;-75
2022/07/06 01:27:36;;;;;;;15.90;14.83;;;14.10;99.90;;;;;;5050716;28;20627;-73
2022/07/06 01:30:03;;;;;;;10.93;10.33;;;14.10;99.90;;;;;;5051930;28;20182;-73
2022/07/06 01:32:28;;;;;;;10.73;9.97;;;14.10;99.90;;;;;;5051547;28;20243;-73
2022/07/06 01:34:54;;;;;;;10.20;9.30;;;14.10;99.90;;;;;;5051582;28;20189;-73
2022/07/06 01:37:20;;;;;;;9.30;8.73;;;14.00;99.90;;;;;;5050836;28;20209;-76
2022/07/06 01:39:46;;;;;;;9.20;8.47;;;14.00;99.90;;;;;;5051181;28;20620;-74
2022/07/06 01:42:11;;;;;;;8.80;8.20;;;14.10;99.90;;;;;;5050487;28;20548;-73
2022/07/06 01:44:37;;;;;;;8.73;8.13;;;14.10;99.90;;;;;;5051454;28;20701;-74
2022/07/06 01:47:03;;;;;;;10.37;9.47;;;14.00;99.90;;;;;;5049926;28;20301;-74
2022/07/06 01:49:29;;;;;;;9.47;8.87;;;14.00;99.90;;;;;;5050256;28;20674;-74
2022/07/06 01:51:55;;;;;;;10.73;10.07;;;13.90;99.90;;;;;;5051368;28;20182;-73
2022/07/06 01:54:20;;;;;;;10.43;9.83;;;14.00;99.90;;;;;;5049930;28;20209;-74
2022/07/06 01:56:47;;;;;;;9.17;8.50;;;14.00;99.90;;;;;;5049375;28;20178;-74
2022/07/06 01:59:12;;;;;;;9.90;9.20;;;13.90;99.90;;;;;;5051262;28;20182;-74
2022/07/06 02:01:38;;;;;;;9.33;8.73;;;13.90;99.90;;;;;;5050157;28;20648;-74
2022/07/06 02:04:04;;;;;;;10.00;9.50;;;13.90;99.90;;;;;;5051271;28;20198;-74
2022/07/06 02:06:30;;;;;;;10.10;9.40;;;13.90;99.90;;;;;;5050502;28;20202;-73
2022/07/06 02:08:56;;;;;;;10.30;9.60;;;13.90;99.90;;;;;;5049966;28;20222;-74
2022/07/06 02:11:22;;;;;;;11.83;11.03;;;13.90;99.90;;;;;;5050037;28;20630;-73
2022/07/06 02:13:47;;;;;;;11.43;10.63;;;13.80;99.90;;;;;;5049846;28;20237;-74
2022/07/06 02:16:13;;;;;;;11.37;10.73;;;13.70;99.90;;;;;;5051167;28;20186;-74
2022/07/06 02:18:39;;;;;;;12.20;11.30;;;13.70;99.90;;;;;;5049167;28;20297;-75
2022/07/06 02:21:05;;;;;;;12.63;11.90;;;13.70;99.90;;;;;;5049948;28;20287;-75
2022/07/06 02:23:31;;;;;;;15.30;14.33;;;13.60;99.90;;;;;;5050551;28;20213;-74
2022/07/06 02:25:57;;;;;;;19.77;18.50;;;13.60;99.90;;;;;;5050733;28;20209;-74
2022/07/06 02:28:22;;;;;;;18.53;17.63;;;13.50;99.90;;;;;;5050322;28;20677;-74
2022/07/06 02:30:48;;;;;;;17.33;16.27;;;13.50;99.90;;;;;;5049706;28;20556;-73
2022/07/06 02:33:14;;;;;;;10.83;10.13;;;13.50;99.90;;;;;;5050704;28;20206;-74
2022/07/06 02:35:42;;;;;;;10.87;10.27;;;13.50;99.90;;;;;;5050670;28;20178;-73
2022/07/06 02:38:11;;;;;;;11.70;11.00;;;13.50;99.90;;;;;;5030348;28;20217;-73
2022/07/06 02:40:38;;;;;;;11.57;10.73;;;13.40;99.90;;;;;;5030090;28;20230;-74
2022/07/06 02:43:04;;;;;;;12.17;11.57;;;13.40;99.90;;;;;;5029675;28;20230;-74
2022/07/06 02:45:30;;;;;;;12.67;11.77;;;13.40;99.90;;;;;;5030025;28;20209;-74
2022/07/06 02:47:57;;;;;;;12.40;11.67;;;13.50;99.90;;;;;;5049003;28;20189;-73
2022/07/06 02:50:23;;;;;;;11.50;11.00;;;13.60;99.90;;;;;;5067994;28;20202;-74
2022/07/06 02:52:49;;;;;;;11.23;10.07;;;13.60;99.90;;;;;;5052946;28;20212;-74
2022/07/06 02:55:15;;;;;;;13.10;12.13;;;13.70;99.90;;;;;;5050945;28;20564;-74
2022/07/06 02:57:41;;;;;;;27.47;25.93;;;13.70;99.90;;;;;;5047603;28;20214;-74
2022/07/06 03:00:09;;;;;;;39.87;37.57;;;13.70;99.90;;;;;;5050710;28;20178;-73
2022/07/06 03:02:35;;;;;;;29.00;27.17;;;13.70;99.90;;;;;;5050609;28;20557;-73
2022/07/06 03:05:01;;;;;;;28.83;27.13;;;13.60;99.90;;;;;;5049602;28;20189;-74
2022/07/06 03:07:26;;;;;;;35.10;33.37;;;13.50;99.90;;;;;;5049306;28;20179;-73
2022/07/06 03:09:52;;;;;;;27.97;26.53;;;13.50;99.90;;;;;;5047987;28;20275;-73
2022/07/06 03:12:18;;;;;;;27.23;25.70;;;13.40;99.90;;;;;;5044862;28;20186;-73
2022/07/06 03:14:44;;;;;;;20.63;19.23;;;13.30;99.90;;;;;;5032527;28;20572;-73
2022/07/06 03:17:10;;;;;;;16.67;15.73;;;13.30;99.90;;;;;;5030859;28;20218;-73
2022/07/06 03:19:35;;;;;;;16.73;15.83;;;13.20;99.90;;;;;;5045199;28;20636;-73
2022/07/06 03:22:01;;;;;;;14.90;14.13;;;13.20;99.90;;;;;;5046678;28;20182;-73
2022/07/06 03:24:27;;;;;;;23.80;22.27;;;13.20;99.90;;;;;;5050097;28;20333;-73
2022/07/06 03:26:53;;;;;;;20.27;19.00;;;13.10;99.90;;;;;;5049634;28;20178;-73
2022/07/06 03:29:20;;;;;;;11.27;10.57;;;13.10;99.90;;;;;;5049137;28;20181;-73
2022/07/06 03:31:46;;;;;;;9.47;8.97;;;13.20;99.90;;;;;;5050295;28;20179;-73
2022/07/06 03:34:12;;;;;;;12.43;11.70;;;13.30;99.90;;;;;;5049823;28;20273;-73
2022/07/06 03:36:38;;;;;;;12.80;11.90;;;13.30;99.90;;;;;;5049680;28;20270;-73
2022/07/06 03:39:04;;;;;;;14.93;13.60;;;13.30;99.90;;;;;;5051389;28;20650;-73
2022/07/06 03:41:30;;;;;;;12.87;11.87;;;13.30;99.90;;;;;;5052391;28;20178;-73
2022/07/06 03:43:56;;;;;;;14.47;13.77;;;13.30;99.90;;;;;;5053406;28;20210;-74
2022/07/06 03:46:22;;;;;;;15.00;14.20;;;13.30;99.90;;;;;;5053859;28;20558;-73
2022/07/06 03:48:48;;;;;;;15.57;14.60;;;13.30;99.90;;;;;;5051889;28;20236;-74
2022/07/06 03:51:14;;;;;;;16.20;15.23;;;13.30;99.90;;;;;;5049572;28;20694;-73
2022/07/06 03:53:39;;;;;;;23.90;22.27;;;13.40;99.90;;;;;;5056807;28;20268;-73
2022/07/06 03:58:49;;;;;;;17.30;16.20;;;13.20;99.90;;;;;;5051746;28;20221;-73
2022/07/06 04:01:15;;;;;;;12.97;12.20;;;13.20;99.90;;;;;;5052148;28;20178;-73
2022/07/06 04:03:41;;;;;;;14.33;13.23;;;13.10;99.90;;;;;;5053517;28;20663;-73
2022/07/06 04:06:07;;;;;;;13.90;13.07;;;13.20;99.90;;;;;;5052539;28;20185;-73
2022/07/06 04:08:32;;;;;;;13.93;12.43;;;13.30;99.90;;;;;;5052421;28;20189;-73
2022/07/06 04:10:58;;;;;;;16.87;15.83;;;13.30;99.90;;;;;;5038799;28;20205;-72
2022/07/06 04:13:25;;;;;;;14.90;13.90;;;13.30;99.90;;;;;;5031553;28;20687;-73
2022/07/06 04:15:51;;;;;;;22.63;21.07;;;13.30;99.90;;;;;;5033583;28;20187;-74
2022/07/06 04:18:17;;;;;;;25.10;23.43;;;13.30;99.90;;;;;;5035709;28;20218;-73
2022/07/06 04:20:43;;;;;;;26.40;24.70;;;13.30;99.90;;;;;;5031801;28;20174;-73
2022/07/06 04:23:09;;;;;;;23.03;21.57;;;13.40;99.90;;;;;;5032580;28;20194;-73
2022/07/06 04:25:34;;;;;;;28.87;27.30;;;13.50;99.90;;;;;;5031932;28;20182;-73
2022/07/06 04:28:00;;;;;;;59.60;56.40;;;13.60;99.90;;;;;;5030947;28;20600;-73
2022/07/06 04:30:26;;;;;;;98.83;93.63;;;13.70;99.90;;;;;;5032331;28;20186;-73
2022/07/06 04:32:52;;;;;;;102.03;96.37;;;13.70;99.90;;;;;;5032628;28;20203;-73
2022/07/06 04:35:18;;;;;;;98.97;93.67;;;13.70;99.90;;;;;;5032064;28;20183;-73
2022/07/06 04:37:45;;;;;;;74.87;70.87;;;13.70;99.90;;;;;;5031398;28;20210;-73
2022/07/06 04:40:12;;;;;;;55.57;52.30;;;13.80;99.90;;;;;;5035939;28;20178;-74
2022/07/06 04:42:38;;;;;;;48.93;46.23;;;14.00;99.90;;;;;;5035867;28;20186;-73
2022/07/06 04:45:04;;;;;;;18.67;17.47;;;14.00;99.90;;;;;;5032505;28;20207;-76
2022/07/06 04:47:30;;;;;;;92.53;87.83;;;14.20;99.90;;;;;;5044755;28;20192;-73
2022/07/06 04:49:56;;;;;;;167.53;159.00;;;14.30;99.90;;;;;;5051437;28;20551;-74
2022/07/06 04:52:22;;;;;;;184.23;173.97;;;14.40;99.90;;;;;;5050383;28;20200;-73
2022/07/06 04:54:48;;;;;;;60.57;57.33;;;14.60;99.90;;;;;;5052680;28;20198;-73
2022/07/06 04:57:14;;;;;;;40.23;38.20;;;14.70;99.90;;;;;;5051386;28;20293;-73
2022/07/06 04:59:40;;;;;;;37.57;35.40;;;14.90;99.90;;;;;;5050495;28;20179;-74
2022/07/06 05:02:06;;;;;;;13.30;12.40;;;15.00;99.90;;;;;;5051540;28;20189;-73
2022/07/06 05:04:32;;;;;;;10.90;10.23;;;15.10;99.90;;;;;;5052471;28;20222;-74
2022/07/06 05:06:58;;;;;;;32.63;30.83;;;15.10;99.90;;;;;;5051144;28;20218;-73
2022/07/06 05:09:24;;;;;;;26.27;24.77;;;15.30;99.90;;;;;;5051089;28;20605;-73
2022/07/06 05:11:50;;;;;;;47.17;44.60;;;15.60;99.90;;;;;;5051020;28;20182;-74
2022/07/06 05:14:15;;;;;;;20.97;19.97;;;15.90;99.90;;;;;;5050013;28;20201;-73
2022/07/06 05:16:41;;;;;;;61.73;58.60;;;16.50;99.90;;;;;;5050926;28;20178;-74
2022/07/06 05:19:07;;;;;;;121.17;114.77;;;16.90;99.90;;;;;;5051543;28;20216;-73
2022/07/06 05:21:33;;;;;;;37.73;35.50;;;17.30;99.90;;;;;;5050218;28;20232;-74
2022/07/06 05:23:58;;;;;;;8.73;8.17;;;17.70;99.90;;;;;;5058154;28;20209;-80
2022/07/06 05:26:24;;;;;;;29.80;28.10;;;18.00;99.90;;;;;;5063033;28;20185;-80
2022/07/06 05:28:50;;;;;;;60.40;56.93;;;18.20;99.90;;;;;;5056957;28;20286;-81
2022/07/06 05:31:16;;;;;;;39.33;36.67;;;18.40;99.90;;;;;;5041978;28;20190;-81
2022/07/06 05:33:42;;;;;;;13.33;12.33;;;18.90;99.90;;;;;;5047048;28;20213;-81
2022/07/06 05:36:08;;;;;;;14.70;13.80;;;19.30;99.90;;;;;;5046929;28;20183;-81
2022/07/06 05:38:34;;;;;;;12.48;11.75;;;19.70;99.90;;;;;;5046115;28;20219;-81
2022/07/06 05:40:59;;;;;;;7.50;6.80;;;20.00;99.90;;;;;;5047043;28;20186;-81
2022/07/06 05:43:25;;;;;;;7.95;7.25;;;20.50;99.90;;;;;;5070386;23;20229;-75
2022/07/06 05:45:51;;;;;;;8.18;7.35;;;21.10;99.90;;;;;;5071623;28;20177;-76
2022/07/06 05:51:01;;;;;;;18.27;17.17;;;22.00;99.90;;;;;;5071695;28;20641;-74
2022/07/06 05:53:27;;;;;;;20.45;19.15;;;21.60;99.90;;;;;;5071326;28;20197;-74
2022/07/06 05:55:53;;;;;;;12.23;11.45;;;20.90;99.90;;;;;;5071701;28;20184;-74
2022/07/06 05:58:18;;;;;;;16.50;15.27;;;20.50;99.90;;;;;;5070652;28;20304;-75
2022/07/06 06:00:44;;;;;;;19.88;18.58;;;20.80;99.90;;;;;;5070930;28;20181;-75
2022/07/06 06:03:10;;;;;;;25.25;23.60;;;21.50;99.90;;;;;;5071356;28;20248;-74
2022/07/06 06:05:36;;;;;;;13.40;12.68;;;22.20;99.90;;;;;;5071676;28;20657;-76
2022/07/06 06:08:02;;;;;;;6.00;5.47;;;22.80;99.90;;;;;;5069408;28;20184;-74
2022/07/06 06:10:28;;;;;;;6.70;4.90;;;23.10;99.90;;;;;;5071548;28;20181;-74
2022/07/06 06:12:54;;;;;;;5.47;4.85;;;23.70;99.90;;;;;;5069020;28;20174;-74
2022/07/06 06:15:20;;;;;;;7.32;5.10;;;24.00;99.90;;;;;;5071193;28;20174;-74
2022/07/06 06:17:46;;;;;;;7.55;7.05;;;24.00;99.90;;;;;;5070799;28;20212;-74
2022/07/06 06:20:15;;;;;;;10.70;9.60;;;23.80;99.90;;;;;;5072056;28;20201;-75
2022/07/06 06:22:45;;;;;;;8.27;7.57;;;23.30;99.90;;;;;;5071285;28;20178;-74
2022/07/06 06:25:11;;;;;;;7.13;6.53;;;23.20;99.90;;;;;;5071214;28;20197;-75
2022/07/06 06:27:36;;;;;;;9.75;9.15;;;23.30;99.90;;;;;;5068892;28;20181;-74
2022/07/06 06:30:03;;;;;;;7.65;7.05;;;23.40;99.90;;;;;;5070038;28;20277;-74
2022/07/06 06:32:29;;;;;;;8.63;8.23;;;23.80;99.90;;;;;;5070893;28;20749;-74
2022/07/06 06:34:55;;;;;;;17.35;16.23;;;24.20;99.90;;;;;;5070020;28;20288;-75
2022/07/06 06:37:21;;;;;;;21.42;20.20;;;24.40;99.90;;;;;;5068865;28;20205;-76
2022/07/06 06:39:46;;;;;;;22.50;20.92;;;24.40;98.40;;;;;;5071446;28;20181;-75
2022/07/06 06:42:12;;;;;;;16.10;15.13;;;24.50;98.00;;;;;;5070641;28;20280;-75
2022/07/06 06:44:38;;;;;;;22.90;21.77;;;24.40;97.60;;;;;;5070749;28;20379;-75
2022/07/06 06:47:04;;;;;;;10.63;10.05;;;23.50;98.40;;;;;;5069560;28;20427;-75
2022/07/06 06:49:29;;;;;;;14.60;13.38;;;22.80;99.50;;;;;;5079130;28;20186;-76
2022/07/06 06:51:55;;;;;;;14.00;12.80;;;22.60;99.90;;;;;;5074292;28;20600;-74
2022/07/06 06:54:21;;;;;;;13.63;12.63;;;22.90;99.90;;;;;;5070915;28;20202;-74
2022/07/06 06:56:47;;;;;;;12.73;12.02;;;23.00;99.90;;;;;;5069956;28;20170;-75
2022/07/06 06:59:12;;;;;;;10.93;10.32;;;23.30;99.50;;;;;;5070507;28;20213;-76
2022/07/06 07:01:38;;;;;;;11.43;10.63;;;23.70;98.60;;;;;;5070538;28;20185;-76
2022/07/06 07:04:05;;;;;;;10.98;10.27;;;23.50;98.50;;;;;;5070657;28;20229;-75
2022/07/06 07:06:32;;;;;;;11.90;11.30;;;23.30;99.00;;;;;;5070913;28;20546;-75
2022/07/06 07:08:58;;;;;;;11.75;10.75;;;23.40;98.80;;;;;;5070003;28;20247;-75
2022/07/06 07:11:23;;;;;;;13.55;12.65;;;23.50;99.10;;;;;;5071986;28;20661;-75
2022/07/06 07:13:49;;;;;;;30.52;28.73;;;24.30;97.40;;;;;;5074315;28;20202;-74
2022/07/06 07:16:15;;;;;;;21.40;19.90;;;25.00;96.10;;;;;;5074334;28;20174;-74
2022/07/06 07:18:41;;;;;;;5.32;4.93;;;25.40;95.70;;;;;;5073578;28;20455;-76
2022/07/06 07:21:06;;;;;;;5.05;4.57;;;26.20;94.00;;;;;;5073193;28;20205;-76
2022/07/06 07:23:32;;;;;;;5.38;4.97;;;26.20;93.40;;;;;;5075289;28;20694;-75
2022/07/06 07:25:58;;;;;;;5.22;4.72;;;26.10;92.80;;;;;;5078062;28;20169;-75
2022/07/06 07:28:24;;;;;;;5.05;4.70;;;25.70;92.90;;;;;;5073363;28;20181;-74
2022/07/06 07:30:50;;;;;;;4.78;4.50;;;25.40;93.00;;;;;;5074844;28;20227;-75
2022/07/06 07:33:16;;;;;;;5.65;5.28;;;25.60;93.20;;;;;;5075047;28;20205;-74
2022/07/06 07:35:42;;;;;;;8.02;5.15;;;26.10;92.60;;;;;;5074275;28;20189;-74
2022/07/06 07:38:08;;;;;;;5.97;5.53;;;26.20;91.20;;;;;;5073256;28;20214;-75
2022/07/06 07:40:35;;;;;;;7.97;5.40;;;25.90;91.80;;;;;;5074150;28;20653;-75
2022/07/06 07:43:01;;;;;;;5.07;4.72;;;25.50;91.30;;;;;;5074069;28;20269;-75
2022/07/06 07:45:27;;;;;;;7.00;5.40;;;25.30;91.50;;;;;;5084865;28;20185;-73
2022/07/06 07:47:53;;;;;;;6.78;5.60;;;25.50;92.30;;;;;;5073879;28;20189;-74
2022/07/06 07:50:18;;;;;;;5.40;5.07;;;25.60;91.60;;;;;;5073853;28;20185;-74
2022/07/06 07:52:44;;;;;;;5.25;4.78;;;26.10;91.50;;;;;;5073734;28;20186;-74
2022/07/06 07:55:10;;;;;;;5.32;4.93;;;26.20;90.00;;;;;;5074017;28;20198;-74
2022/07/06 07:57:36;;;;;;;5.90;5.50;;;26.00;90.10;;;;;;5072947;28;20269;-74
2022/07/06 08:00:04;;;;;;;4.90;4.50;;;26.00;91.00;;;;;;5073786;28;20173;-75
2022/07/06 08:02:30;;;;;;;4.25;4.05;;;26.30;90.10;;;;;;5073469;28;20178;-75
2022/07/06 08:04:55;;;;;;;5.82;5.50;;;26.40;89.70;;;;;;5073872;28;20259;-75
2022/07/06 08:07:21;;;;;;;5.03;4.10;;;26.10;89.30;;;;;;5071432;28;20181;-75
2022/07/06 08:09:47;;;;;;;6.22;5.80;;;26.30;90.00;;;;;;5074002;28;20215;-74
2022/07/06 08:12:13;;;;;;;6.85;6.45;;;26.30;88.30;;;;;;5073345;28;20240;-74
2022/07/06 08:14:39;;;;;;;6.18;5.68;;;26.20;88.00;;;;;;5073061;28;20201;-74
2022/07/06 08:17:05;;;;;;;6.10;5.60;;;26.40;87.50;;;;;;5072442;28;20962;-75
2022/07/06 08:19:30;;;;;;;5.70;5.30;;;26.70;86.80;;;;;;5075294;28;20178;-74
2022/07/06 08:21:57;;;;;;;6.10;5.70;;;26.30;86.60;;;;;;5080260;28;20197;-75
2022/07/06 08:24:23;;;;;;;5.88;4.55;;;26.10;85.50;;;;;;5078410;28;20198;-75
2022/07/06 08:26:49;;;;;;;4.95;4.05;;;25.90;87.80;;;;;;5077521;28;20189;-75
2022/07/06 08:29:15;;;;;;;4.78;4.40;;;25.80;86.70;;;;;;5076596;28;20182;-75
2022/07/06 08:31:40;;;;;;;4.90;4.50;;;25.90;87.10;;;;;;5072952;28;20284;-74
2022/07/06 08:34:06;;;;;;;5.45;5.03;;;25.90;86.10;;;;;;5073587;28;20197;-75
2022/07/06 08:36:32;;;;;;;5.28;4.55;;;26.00;87.70;;;;;;5073054;28;20182;-75
2022/07/06 08:38:58;;;;;;;7.95;5.20;;;26.60;84.70;;;;;;5080314;28;20307;-74
2022/07/06 08:41:28;;;;;;;8.77;8.10;;;26.50;84.10;;;;;;5075842;28;20181;-75
2022/07/06 08:43:54;;;;;;;8.95;7.60;;;26.60;81.50;;;;;;5072329;28;20653;-74
2022/07/06 08:46:21;;;;;;;6.97;6.53;;;27.00;82.50;;;;;;5072675;28;20174;-75
2022/07/06 08:48:48;;;;;;;7.75;7.22;;;27.40;82.10;;;;;;5071796;28;20205;-75
2022/07/06 08:51:14;;;;;;;7.07;6.28;;;27.40;83.30;;;;;;5072572;28;20188;-75
2022/07/06 08:53:45;;;;;;;9.80;7.43;;;27.30;82.50;;;;;;5072301;28;20262;-76
2022/07/06 08:56:11;;;;;;;9.40;6.05;;;27.20;81.90;;;;;;5072399;28;20177;-76
2022/07/06 08:58:41;;;;;;;7.43;5.15;;;27.20;84.60;;;;;;5071618;28;20750;-76
2022/07/06 09:01:09;;;;;;;6.88;6.47;;;27.80;80.90;;;;;;5072851;28;20541;-75
2022/07/06 09:03:35;;;;;;;5.72;5.43;;;27.70;81.50;;;;;;5076773;28;20288;-75
2022/07/06 09:06:02;;;;;;;5.40;4.85;;;27.50;81.40;;;;;;5074976;28;20555;-75
2022/07/06 09:08:30;;;;;;;5.15;4.65;;;27.60;81.70;;;;;;5071639;28;20190;-74
2022/07/06 09:10:56;;;;;;;7.10;5.57;;;27.40;81.30;;;;;;5072487;28;20193;-74
2022/07/06 09:13:22;;;;;;;6.78;6.18;;;27.10;79.50;;;;;;5071946;28;20210;-74
2022/07/06 09:15:49;;;;;;;7.65;7.22;;;26.90;79.40;;;;;;5072047;28;20260;-75
2022/07/06 09:18:14;;;;;;;7.35;6.57;;;26.90;79.30;;;;;;5071104;28;20698;-74
2022/07/06 09:20:41;;;;;;;8.68;7.93;;;26.90;76.60;;;;;;5072371;28;20189;-74
2022/07/06 09:23:08;;;;;;;8.45;7.40;;;26.60;75.90;;;;;;5071693;28;20200;-75
2022/07/06 09:25:35;;;;;;;6.40;6.00;;;26.90;78.40;;;;;;5071782;28;20193;-76
2022/07/06 09:28:02;;;;;;;6.03;5.47;;;27.60;78.50;;;;;;5071232;28;20178;-75
2022/07/06 09:30:29;;;;;;;4.82;4.35;;;27.50;77.20;;;;;;5071838;28;20235;-75
2022/07/06 09:32:56;;;;;;;5.25;4.95;;;27.50;79.40;;;;;;5077870;28;20201;-75
2022/07/06 09:35:26;;;;;;;5.95;5.65;;;27.40;78.00;;;;;;5079169;28;20650;-75
2022/07/06 09:38:05;;;;;;;6.25;5.53;;;27.50;78.10;;;;;;5073504;28;20248;-75
2022/07/06 09:40:34;;;;;;;13.00;5.72;;;27.60;77.60;;;;;;5070465;28;20185;-75
2022/07/06 09:43:20;;;;;;;5.28;4.88;;;28.00;78.10;;;;;;5071380;28;20181;-75
2022/07/06 09:45:55;;;;;;;5.00;4.65;;;28.60;76.50;;;;;;5072222;28;20220;-75
2022/07/06 09:48:27;;;;;;;5.68;5.20;;;28.30;74.30;;;;;;5071589;28;20189;-76
2022/07/06 09:50:57;;;;;;;7.50;6.93;;;27.70;74.70;;;;;;5073650;28;20613;-75
2022/07/06 09:53:25;;;;;;;7.15;6.53;;;27.50;75.50;;;;;;5072005;28;20820;-75
2022/07/06 09:55:58;;;;;;;5.85;4.93;;;28.20;75.30;;;;;;5071632;28;20260;-74
2022/07/06 09:58:24;;;;;;;4.97;4.68;;;28.10;75.90;;;;;;5070466;28;20224;-75
2022/07/06 10:00:51;;;;;;;5.25;4.95;;;28.30;75.60;;;;;;5071180;28;20197;-75
2022/07/06 10:03:17;;;;;;;6.40;4.50;;;28.60;76.70;;;;;;5070500;28;20197;-75
2022/07/06 10:05:46;;;;;;;6.80;5.65;;;29.10;75.70;;;;;;5071265;28;20672;-76
2022/07/06 10:08:13;;;;;;;5.88;5.38;;;29.00;73.00;;;;;;5070455;28;20200;-75
2022/07/06 10:10:41;;;;;;;5.40;5.05;;;27.80;73.60;;;;;;5071338;28;20182;-75
2022/07/06 10:13:08;;;;;;;7.15;5.88;;;27.10;76.80;;;;;;5071083;28;20528;-75
2022/07/06 10:15:38;;;;;;;6.32;5.43;;;26.90;78.40;;;;;;5071145;28;20741;-75
2022/07/06 10:18:06;;;;;;;5.18;4.78;;;27.50;77.40;;;;;;5070295;28;20569;-75
2022/07/06 10:20:38;;;;;;;9.35;5.68;;;28.50;75.90;;;;;;5071217;28;20174;-76
2022/07/06 10:23:06;;;;;;;8.00;7.20;;;28.10;74.80;;;;;;5071778;28;20185;-75
2022/07/06 10:25:32;;;;;;;6.43;5.97;;;27.40;76.20;;;;;;5073221;28;20231;-75
2022/07/06 10:27:59;;;;;;;5.72;4.75;;;27.40;75.40;;;;;;5083079;28;20654;-75
2022/07/06 10:30:26;;;;;;;7.70;6.07;;;27.70;74.10;;;;;;5071960;28;20250;-75
2022/07/06 10:32:54;;;;;;;7.72;5.00;;;28.50;73.60;;;;;;5070832;28;20710;-76
2022/07/06 10:35:20;;;;;;;5.38;4.97;;;28.80;72.50;;;;;;5071026;28;20223;-76
2022/07/06 10:38:06;;;;;;;5.88;5.38;;;28.00;73.80;;;;;;5068914;28;20209;-76
2022/07/06 10:43:21;;;;;;;8.10;7.28;;;29.30;72.60;;;;;;5070604;28;20205;-75
2022/07/06 10:45:47;;;;;;;10.88;8.55;;;29.40;69.50;;;;;;5071318;28;20318;-76
2022/07/06 10:48:13;;;;;;;6.95;6.35;;;28.50;71.00;;;;;;5072899;28;20689;-74
2022/07/06 10:50:45;;;;;;;5.85;5.38;;;27.90;72.60;;;;;;5074943;28;20312;-75
2022/07/06 10:53:25;;;;;;;5.68;5.20;;;27.60;73.40;;;;;;5074956;28;20661;-75
2022/07/06 10:55:53;;;;;;;4.97;4.57;;;27.50;73.80;;;;;;5075599;28;20178;-75
2022/07/06 10:58:39;;;;;;;6.22;5.75;;;28.10;74.50;;;;;;5074423;28;20205;-76
2022/07/06 11:01:06;;;;;;;5.10;4.32;;;29.20;72.30;;;;;;5074814;28;20184;-75
2022/07/06 11:03:33;;;;;;;7.57;6.97;;;29.80;71.60;;;;;;5074474;28;20258;-74
2022/07/06 11:06:01;;;;;;;7.60;6.03;;;29.30;67.80;;;;;;5074775;28;20200;-75
2022/07/06 11:08:53;;;;;;;8.15;7.50;;;29.20;71.40;;;;;;5073816;28;20178;-75
2022/07/06 11:11:24;;;;;;;6.28;5.88;;;30.00;69.40;;;;;;5074515;28;20531;-74
2022/07/06 11:13:49;;;;;;;8.70;8.20;;;30.10;67.50;;;;;;5074239;28;20198;-75
2022/07/06 11:16:17;;;;;;;11.88;11.05;;;30.10;67.00;;;;;;5074387;28;20247;-76
2022/07/06 11:19:10;;;;;;;6.80;6.40;;;29.80;65.50;;;;;;5072287;28;20224;-76
2022/07/06 11:21:48;;;;;;;11.38;10.73;;;30.00;68.20;;;;;;5074622;28;20185;-74
2022/07/06 11:24:16;;;;;;;17.52;16.27;;;29.80;66.50;;;;;;5075117;28;20511;-75
2022/07/06 11:26:44;;;;;;;11.13;10.32;;;29.50;65.50;;;;;;5073988;28;20554;-75
2022/07/06 11:29:11;;;;;;;9.65;9.20;;;29.00;67.70;;;;;;5074252;28;20325;-75
2022/07/06 11:31:40;;;;;;;6.70;5.32;;;29.30;66.10;;;;;;5074282;28;20181;-75
2022/07/06 11:34:07;;;;;;;7.32;6.72;;;29.40;67.00;;;;;;5074195;28;20244;-74
2022/07/06 11:36:34;;;;;;;5.68;4.93;;;29.10;65.60;;;;;;5072769;28;20209;-75
2022/07/06 11:39:00;;;;;;;7.22;6.13;;;28.10;67.30;;;;;;5073863;28;20928;-75
2022/07/06 11:41:26;;;;;;;6.30;5.78;;;27.20;71.00;;;;;;5074584;28;20787;-75
2022/07/06 11:43:52;;;;;;;7.00;6.47;;;27.70;70.10;;;;;;5091560;23;20232;-78
2022/07/06 11:46:23;;;;;;;7.50;6.57;;;27.70;68.70;;;;;;5076465;28;20178;-79
2022/07/06 11:48:51;;;;;;;5.88;5.40;;;27.40;70.90;;;;;;5077042;28;20182;-78
2022/07/06 11:51:16;;;;;;;5.60;5.10;;;27.70;70.60;;;;;;5079741;28;20181;-78
2022/07/06 11:53:47;;;;;;;7.30;6.72;;;29.10;70.30;;;;;;5079170;28;20375;-78
2022/07/06 11:56:15;;;;;;;9.68;9.15;;;31.00;65.40;;;;;;5080689;28;20257;-77
2022/07/06 11:58:43;;;;;;;21.52;20.42;;;31.20;62.80;;;;;;5084107;28;20217;-78
2022/07/06 12:01:10;;;;;;;17.95;16.70;;;30.90;62.20;;;;;;5083479;28;20178;-79
2022/07/06 12:03:37;;;;;;;10.50;9.60;;;30.00;62.80;;;;;;5082062;28;20193;-79
2022/07/06 12:06:12;;;;;;;9.60;8.52;;;29.00;65.30;;;;;;5083703;28;20177;-78
2022/07/06 12:08:46;;;;;;;5.60;5.05;;;28.60;66.30;;;;;;5084035;28;20557;-78
2022/07/06 12:11:26;;;;;;;5.78;5.40;;;29.10;66.10;;;;;;5084668;28;20200;-80
2022/07/06 12:13:55;;;;;;;11.75;10.93;;;30.00;65.70;;;;;;5083958;28;20205;-79
2022/07/06 12:16:23;;;;;;;6.65;5.50;;;29.60;64.50;;;;;;5081368;28;20181;-80
2022/07/06 12:18:50;;;;;;;9.02;7.70;;;28.20;66.70;;;;;;5080979;28;20784;-78
2022/07/06 12:21:20;;;;;;;8.50;7.82;;;26.70;69.80;;;;;;5081425;28;20216;-78
2022/07/06 12:23:48;;;;;;;7.50;6.88;;;26.10;73.60;;;;;;5083280;28;20562;-78
2022/07/06 12:26:17;;;;;;;8.27;7.57;;;26.40;72.50;;;;;;5084516;28;20180;-77
2022/07/06 12:28:44;;;;;;;6.18;5.78;;;26.40;72.40;;;;;;5086923;28;20253;-77
2022/07/06 12:31:11;;;;;;;5.30;4.90;;;26.50;73.30;;;;;;5089308;28;20224;-77
2022/07/06 12:33:37;;;;;;;5.30;4.78;;;26.50;72.80;;;;;;5088410;28;20206;-77
2022/07/06 12:36:16;;;;;;;7.43;5.75;;;26.20;74.10;;;;;;5087520;28;20182;-79
2022/07/06 12:38:48;;;;;;;6.35;5.07;;;26.20;74.20;;;;;;5086583;28;20757;-79
2022/07/06 12:41:32;;;;;;;5.75;5.35;;;27.10;72.70;;;;;;5086774;28;20174;-78
2022/07/06 12:44:04;;;;;;;8.38;7.57;;;27.80;70.90;;;;;;5087197;28;20368;-78